createdAt,value
2023-04-08T00:01:29.097Z,89.16
2023-04-08T00:04:02.052Z,89.16
2023-04-08T00:06:35.352Z,89.25
2023-04-08T00:09:09.892Z,89.25
2023-04-08T00:11:40.744Z,89.26
2023-04-08T00:14:11.641Z,89.30
2023-04-08T00:16:42.465Z,89.25
2023-04-08T00:19:13.409Z,89.30
2023-04-08T00:21:44.343Z,89.41
2023-04-08T00:24:14.923Z,89.36
2023-04-08T00:26:45.472Z,89.42
2023-04-08T00:29:17.336Z,89.39
2023-04-08T00:31:49.700Z,89.45
2023-04-08T00:34:22.553Z,89.45
2023-04-08T00:36:53.183Z,89.45
2023-04-08T00:39:23.616Z,89.42
2023-04-08T00:41:54.528Z,89.41
2023-04-08T00:44:25.801Z,89.54
2023-04-08T00:46:56.521Z,89.52
2023-04-08T00:49:27.856Z,89.49
2023-04-08T00:52:01.824Z,89.52
2023-04-08T00:54:32.580Z,89.45
2023-04-08T00:57:04.931Z,89.38
2023-04-08T00:59:38.977Z,89.39
2023-04-08T01:02:21.712Z,89.42
2023-04-08T01:05:10.892Z,89.49
2023-04-08T01:07:47.464Z,89.50
2023-04-08T01:10:22.473Z,89.50
2023-04-08T01:13:06.282Z,89.52
2023-04-08T01:15:42.426Z,89.56
2023-04-08T01:18:15.564Z,89.57
2023-04-08T01:20:47.630Z,89.57
2023-04-08T01:23:41.295Z,89.58
2023-04-08T01:26:17.580Z,89.61
2023-04-08T01:28:52.136Z,89.56
2023-04-08T01:31:24.793Z,89.49
2023-04-08T01:33:57.170Z,89.53
2023-04-08T01:36:29.466Z,89.53
2023-04-08T01:39:02.925Z,89.52
2023-04-08T01:41:36.765Z,89.49
2023-04-08T01:44:07.393Z,89.54
2023-04-08T01:46:39.799Z,89.48
2023-04-08T01:49:12.014Z,89.34
2023-04-08T01:51:42.710Z,89.23
2023-04-08T01:54:13.524Z,89.25
2023-04-08T01:56:46.472Z,89.16
2023-04-08T01:59:20.029Z,89.11
2023-04-08T02:01:52.246Z,89.11
2023-04-08T02:04:22.966Z,89.19
2023-04-08T02:06:57.410Z,89.26
2023-04-08T02:09:28.163Z,89.10
2023-04-08T02:12:00.518Z,89.11
2023-04-08T02:14:32.408Z,89.08
2023-04-08T02:17:08.814Z,89.04
2023-04-08T02:19:51.328Z,89.04
2023-04-08T02:22:43.329Z,88.99
2023-04-08T02:25:16.356Z,89.00
2023-04-08T02:27:49.401Z,88.87
2023-04-08T02:30:23.459Z,89.04
2023-04-08T02:32:57.220Z,88.95
2023-04-08T02:35:29.838Z,88.95
2023-04-08T02:38:01.055Z,88.77
2023-04-08T02:40:33.200Z,88.77
2023-04-08T02:43:04.161Z,88.92
2023-04-08T02:45:39.419Z,89.02
2023-04-08T02:48:10.582Z,89.00
2023-04-08T02:50:41.479Z,88.99
2023-04-08T02:53:12.009Z,89.01
2023-04-08T02:55:42.731Z,89.00
2023-04-08T02:58:13.404Z,88.94
2023-04-08T03:00:44.498Z,89.07
2023-04-08T03:03:17.053Z,88.89
2023-04-08T03:05:50.488Z,88.93
2023-04-08T03:08:21.551Z,89.00
2023-04-08T03:10:52.157Z,88.95
2023-04-08T03:13:22.830Z,89.01
2023-04-08T03:15:54.972Z,88.99
2023-04-08T03:18:27.161Z,88.94
2023-04-08T03:21:01.042Z,88.97
2023-04-08T03:23:31.731Z,89.00
2023-04-08T03:26:03.788Z,89.06
2023-04-08T03:28:35.741Z,89.06
2023-04-08T03:31:06.889Z,88.99
2023-04-08T03:33:37.387Z,88.94
2023-04-08T03:36:08.805Z,89.08
2023-04-08T03:38:39.584Z,89.09
2023-04-08T03:41:09.990Z,89.13
2023-04-08T03:43:40.719Z,89.12
2023-04-08T03:46:11.508Z,89.21
2023-04-08T03:48:43.708Z,89.23
2023-04-08T03:51:14.411Z,89.15
2023-04-08T03:53:45.092Z,89.05
2023-04-08T03:56:16.186Z,89.26
2023-04-08T03:58:46.847Z,89.27
2023-04-08T04:01:17.348Z,89.35
2023-04-08T04:03:48.637Z,89.43
2023-04-08T04:06:19.459Z,89.40
2023-04-08T04:08:50.568Z,89.39
2023-04-08T04:11:22.426Z,89.43
2023-04-08T04:13:52.945Z,89.43
2023-04-08T04:16:23.834Z,89.37
2023-04-08T04:18:55.812Z,89.39
2023-04-08T04:21:27.057Z,89.37
2023-04-08T04:24:00.465Z,89.29
2023-04-08T04:26:31.190Z,89.24
2023-04-08T04:29:03.842Z,89.16
2023-04-08T04:31:34.534Z,89.07
2023-04-08T04:34:05.760Z,89.05
2023-04-08T04:36:38.005Z,88.91
2023-04-08T04:39:09.008Z,88.98
2023-04-08T04:41:43.091Z,88.96
2023-04-08T04:44:14.059Z,88.85
2023-04-08T04:46:46.169Z,88.92
2023-04-08T04:49:16.741Z,88.74
2023-04-08T04:51:48.681Z,88.93
2023-04-08T04:54:19.238Z,88.79
2023-04-08T04:56:50.008Z,88.82
2023-04-08T04:59:20.675Z,88.77
2023-04-08T05:01:53.779Z,88.71
2023-04-08T05:04:26.472Z,88.69
2023-04-08T05:07:02.471Z,88.60
2023-04-08T05:09:35.217Z,88.71
2023-04-08T05:12:06.194Z,88.72
2023-04-08T05:14:36.829Z,88.64
2023-04-08T05:17:08.440Z,88.55
2023-04-08T05:19:39.046Z,88.62
2023-04-08T05:22:13.573Z,88.55
2023-04-08T05:24:45.673Z,88.51
2023-04-08T05:27:16.199Z,88.45
2023-04-08T05:29:49.215Z,88.41
2023-04-08T05:32:19.894Z,88.40
2023-04-08T05:34:50.919Z,88.42
2023-04-08T05:37:23.228Z,88.36
2023-04-08T05:39:53.992Z,88.19
2023-04-08T05:42:26.867Z,88.00
2023-04-08T05:44:57.375Z,87.98
2023-04-08T05:47:31.115Z,87.67
2023-04-08T05:50:01.879Z,87.70
2023-04-08T05:52:32.613Z,87.55
2023-04-08T05:55:03.238Z,87.60
2023-04-08T05:57:33.833Z,87.76
2023-04-08T06:00:06.341Z,87.78
2023-04-08T06:02:37.340Z,87.81
2023-04-08T06:05:10.213Z,87.68
2023-04-08T06:07:43.833Z,87.47
2023-04-08T06:10:14.601Z,87.29
2023-04-08T06:12:45.363Z,87.20
2023-04-08T06:15:18.091Z,87.06
2023-04-08T06:17:52.205Z,87.19
2023-04-08T06:20:23.210Z,87.15
2023-04-08T06:22:56.060Z,87.29
2023-04-08T06:25:26.214Z,87.24
2023-04-08T06:27:56.852Z,86.81
2023-04-08T06:30:27.427Z,86.50
2023-04-08T06:32:57.904Z,86.27
2023-04-08T06:35:28.642Z,86.19
2023-04-08T06:38:00.403Z,85.93
2023-04-08T06:40:32.793Z,85.94
2023-04-08T06:43:03.690Z,85.94
2023-04-08T06:45:36.186Z,85.77
2023-04-08T06:48:08.460Z,85.62
2023-04-08T06:50:39.055Z,85.62
2023-04-08T06:53:09.702Z,85.75
2023-04-08T06:55:40.193Z,85.51
2023-04-08T06:58:10.937Z,85.40
2023-04-08T07:00:42.750Z,85.20
2023-04-08T07:03:13.443Z,85.27
2023-04-08T07:05:45.311Z,85.17
2023-04-08T07:08:17.226Z,84.83
2023-04-08T07:10:50.342Z,84.95
2023-04-08T07:13:20.946Z,84.60
2023-04-08T07:15:51.584Z,84.34
2023-04-08T07:18:22.612Z,84.06
2023-04-08T07:20:55.698Z,83.63
2023-04-08T07:23:26.269Z,84.05
2023-04-08T07:25:57.008Z,83.64
2023-04-08T07:28:29.582Z,83.57
2023-04-08T07:31:17.469Z,82.37
2023-04-08T07:33:48.273Z,81.72
2023-04-08T07:36:19.753Z,81.68
2023-04-08T07:38:51.324Z,81.14
2023-04-08T07:41:23.485Z,81.83
2023-04-08T07:43:55.073Z,80.56
2023-04-08T07:46:28.550Z,80.52
2023-04-08T07:48:59.136Z,80.80
2023-04-08T07:51:29.996Z,80.87
2023-04-08T07:54:01.626Z,80.89
2023-04-08T07:56:32.231Z,80.47
2023-04-08T07:59:03.145Z,81.44
2023-04-08T08:01:35.815Z,81.13
2023-04-08T08:04:06.661Z,81.12
2023-04-08T08:06:37.253Z,80.76
2023-04-08T08:09:07.731Z,79.56
2023-04-08T08:11:38.385Z,77.81
2023-04-08T08:14:08.950Z,78.48
2023-04-08T08:16:40.214Z,78.53
2023-04-08T08:19:12.438Z,78.35
2023-04-08T08:21:44.103Z,78.72
2023-04-08T08:24:16.903Z,77.89
2023-04-08T08:26:49.113Z,78.05
2023-04-08T08:29:19.698Z,77.43
2023-04-08T08:31:52.427Z,76.31
2023-04-08T08:34:24.400Z,75.88
2023-04-08T08:36:55.967Z,75.67
2023-04-08T08:39:26.958Z,76.28
2023-04-08T08:41:57.913Z,75.14
2023-04-08T08:44:28.861Z,75.48
2023-04-08T08:46:59.577Z,76.45
2023-04-08T08:49:30.705Z,75.23
2023-04-08T08:52:01.902Z,76.01
2023-04-08T08:54:32.591Z,75.79
2023-04-08T08:57:04.684Z,75.91
2023-04-08T08:59:35.659Z,74.92
2023-04-08T09:02:10.959Z,74.91
2023-04-08T09:04:45.944Z,74.14
2023-04-08T09:07:16.801Z,74.79
2023-04-08T09:09:51.664Z,74.69
2023-04-08T09:12:22.753Z,75.23
2023-04-08T09:14:54.832Z,75.46
2023-04-08T09:17:41.481Z,75.50
2023-04-08T09:20:15.455Z,75.81
2023-04-08T09:23:03.296Z,75.08
2023-04-08T09:25:35.113Z,75.97
2023-04-08T09:28:06.299Z,76.36
2023-04-08T09:30:36.885Z,76.94
2023-04-08T09:33:07.572Z,76.25
2023-04-08T09:35:38.787Z,75.13
2023-04-08T09:38:09.646Z,75.33
2023-04-08T09:40:46.342Z,74.70
2023-04-08T09:43:20.553Z,74.47
2023-04-08T09:45:52.148Z,75.64
2023-04-08T09:48:28.699Z,76.78
2023-04-08T09:51:00.453Z,76.76
2023-04-08T09:53:39.818Z,75.83
2023-04-08T09:56:13.079Z,76.25
2023-04-08T09:58:47.292Z,75.60
2023-04-08T10:01:21.040Z,75.24
2023-04-08T10:03:54.989Z,74.92
2023-04-08T10:06:29.659Z,75.02
2023-04-08T10:09:02.868Z,74.36
2023-04-08T10:11:34.655Z,74.73
2023-04-08T10:14:06.923Z,74.94
2023-04-08T10:16:38.976Z,75.43
2023-04-08T10:19:43.025Z,75.53
2023-04-08T10:22:37.235Z,74.93
2023-04-08T10:25:20.420Z,73.66
2023-04-08T10:27:52.524Z,72.80
2023-04-08T10:30:32.196Z,72.37
2023-04-08T10:33:03.469Z,72.78
2023-04-08T10:35:40.236Z,72.24
2023-04-08T10:38:12.950Z,70.40
2023-04-08T10:40:45.873Z,70.04
2023-04-08T10:43:16.789Z,69.37
2023-04-08T10:45:49.097Z,68.56
2023-04-08T10:48:23.816Z,67.35
2023-04-08T10:50:57.088Z,66.89
2023-04-08T10:53:31.560Z,67.60
2023-04-08T10:56:11.107Z,68.40
2023-04-08T10:58:52.771Z,68.47
2023-04-08T11:01:24.590Z,66.93
2023-04-08T11:03:55.455Z,66.36
2023-04-08T11:06:27.631Z,66.81
2023-04-08T11:09:00.177Z,66.29
2023-04-08T11:11:32.727Z,64.88
2023-04-08T11:14:04.843Z,64.64
2023-04-08T11:16:38.428Z,64.11
2023-04-08T11:19:12.055Z,63.91
2023-04-08T11:21:43.261Z,64.29
2023-04-08T11:24:14.456Z,63.93
2023-04-08T11:26:45.387Z,65.21
2023-04-08T11:29:19.191Z,65.96
2023-04-08T11:32:04.878Z,65.25
2023-04-08T11:34:37.078Z,65.09
2023-04-08T11:37:07.567Z,65.33
2023-04-08T11:39:45.927Z,64.85
2023-04-08T11:42:34.601Z,63.75
2023-04-08T11:45:13.393Z,62.98
2023-04-08T11:47:46.840Z,62.93
2023-04-08T11:50:29.081Z,63.30
2023-04-08T11:53:00.857Z,64.61
2023-04-08T11:55:35.136Z,64.58
2023-04-08T11:58:07.725Z,64.77
2023-04-08T12:00:41.747Z,64.38
2023-04-08T12:03:13.565Z,64.83
2023-04-08T12:05:44.562Z,64.73
2023-04-08T12:08:19.392Z,64.98
2023-04-08T12:10:50.246Z,65.23
2023-04-08T12:13:22.673Z,66.09
2023-04-08T12:15:53.281Z,66.13
2023-04-08T12:18:24.362Z,65.92
2023-04-08T12:20:55.023Z,66.25
2023-04-08T12:23:26.010Z,66.57
2023-04-08T12:25:56.623Z,65.09
2023-04-08T12:28:27.769Z,63.34
2023-04-08T12:31:00.062Z,62.23
2023-04-08T12:33:32.618Z,61.74
2023-04-08T12:36:03.690Z,62.76
2023-04-08T12:38:34.314Z,62.33
2023-04-08T12:41:05.090Z,60.55
2023-04-08T12:43:35.723Z,60.90
2023-04-08T12:46:07.954Z,60.64
2023-04-08T12:48:39.116Z,61.59
2023-04-08T12:51:10.682Z,60.81
2023-04-08T12:53:41.550Z,59.58
2023-04-08T12:56:12.374Z,57.77
2023-04-08T12:58:45.664Z,58.31
2023-04-08T13:01:19.620Z,60.21
2023-04-08T13:03:50.405Z,60.07
2023-04-08T13:06:21.114Z,60.84
2023-04-08T13:08:52.097Z,61.14
2023-04-08T13:11:22.980Z,61.37
2023-04-08T13:13:53.923Z,62.08
2023-04-08T13:16:26.120Z,62.70
2023-04-08T13:18:56.698Z,63.74
2023-04-08T13:21:28.008Z,63.81
2023-04-08T13:24:00.490Z,62.44
2023-04-08T13:26:32.616Z,61.48
2023-04-08T13:29:03.417Z,60.13
2023-04-08T13:31:34.493Z,59.81
2023-04-08T13:34:07.180Z,59.88
2023-04-08T13:36:37.715Z,59.33
2023-04-08T13:39:08.250Z,57.41
2023-04-08T13:41:39.032Z,56.79
2023-04-08T13:44:10.915Z,55.77
2023-04-08T13:46:42.784Z,55.67
2023-04-08T13:49:13.895Z,55.44
2023-04-08T13:51:45.654Z,55.69
2023-04-08T13:54:17.875Z,55.87
2023-04-08T13:56:51.169Z,55.25
2023-04-08T13:59:21.749Z,55.09
2023-04-08T14:01:54.290Z,55.25
2023-04-08T14:04:25.243Z,54.58
2023-04-08T14:06:57.538Z,53.43
2023-04-08T14:09:28.553Z,53.19
2023-04-08T14:11:59.051Z,54.31
2023-04-08T14:14:29.693Z,55.74
2023-04-08T14:17:05.689Z,57.66
2023-04-08T14:19:36.358Z,58.46
2023-04-08T14:22:08.336Z,57.80
2023-04-08T14:24:38.952Z,57.10
2023-04-08T14:27:12.593Z,57.91
2023-04-08T14:29:43.801Z,57.29
2023-04-08T14:32:14.691Z,56.81
2023-04-08T14:34:45.782Z,56.33
2023-04-08T14:37:17.792Z,56.39
2023-04-08T14:39:48.809Z,57.27
2023-04-08T14:42:22.556Z,57.45
2023-04-08T14:44:53.141Z,57.21
2023-04-08T14:47:26.558Z,56.22
2023-04-08T14:49:57.168Z,55.44
2023-04-08T14:52:31.210Z,53.68
2023-04-08T14:55:03.404Z,53.10
2023-04-08T14:57:34.237Z,52.82
2023-04-08T15:00:05.049Z,54.05
2023-04-08T15:02:35.865Z,54.28
2023-04-08T15:05:08.618Z,53.75
2023-04-08T15:07:40.817Z,53.71
2023-04-08T15:10:12.124Z,53.29
2023-04-08T15:12:42.667Z,53.25
2023-04-08T15:15:13.400Z,53.82
2023-04-08T15:17:44.036Z,54.46
2023-04-08T15:20:18.172Z,55.64
2023-04-08T15:22:50.138Z,55.35
2023-04-08T15:25:21.123Z,55.77
2023-04-08T15:27:52.411Z,56.38
2023-04-08T15:30:24.673Z,56.45
2023-04-08T15:32:57.384Z,56.41
2023-04-08T15:35:27.704Z,56.11
2023-04-08T15:38:02.012Z,55.53
2023-04-08T15:40:35.620Z,55.36
2023-04-08T15:43:06.877Z,54.80
2023-04-08T15:45:44.579Z,54.59
2023-04-08T15:48:16.730Z,54.73
2023-04-08T15:50:47.466Z,54.33
2023-04-08T15:53:18.144Z,54.58
2023-04-08T15:55:50.293Z,54.77
2023-04-08T15:58:21.297Z,54.39
2023-04-08T16:00:52.704Z,54.42
2023-04-08T16:03:23.345Z,54.86
2023-04-08T16:05:54.270Z,54.92
2023-04-08T16:08:24.833Z,55.16
2023-04-08T16:11:03.401Z,55.29
2023-04-08T16:13:34.372Z,55.39
2023-04-08T16:16:05.078Z,55.32
2023-04-08T16:18:35.937Z,55.32
2023-04-08T16:21:08.131Z,55.85
2023-04-08T16:23:39.002Z,55.96
2023-04-08T16:26:09.906Z,55.38
2023-04-08T16:28:41.062Z,55.52
2023-04-08T16:31:12.092Z,55.66
2023-04-08T16:33:42.863Z,55.84
2023-04-08T16:36:15.038Z,55.59
2023-04-08T16:38:47.764Z,56.11
2023-04-08T16:41:18.344Z,55.98
2023-04-08T16:43:51.096Z,56.20
2023-04-08T16:46:24.933Z,56.09
2023-04-08T16:48:55.716Z,55.75
2023-04-08T16:51:26.546Z,56.42
2023-04-08T16:53:58.976Z,55.65
2023-04-08T16:56:32.392Z,56.52
2023-04-08T16:59:03.058Z,56.64
2023-04-08T17:01:33.814Z,56.82
2023-04-08T17:04:05.504Z,56.80
2023-04-08T17:06:37.646Z,56.88
2023-04-08T17:09:09.941Z,56.92
2023-04-08T17:11:41.403Z,56.98
2023-04-08T17:14:12.318Z,58.12
2023-04-08T17:16:43.119Z,60.03
2023-04-08T17:19:15.443Z,62.05
2023-04-08T17:21:48.023Z,63.69
2023-04-08T17:24:20.403Z,65.13
2023-04-08T17:26:50.941Z,66.16
2023-04-08T17:29:22.278Z,66.80
2023-04-08T17:31:54.754Z,67.76
2023-04-08T17:34:26.479Z,68.15
2023-04-08T17:36:57.462Z,68.50
2023-04-08T17:39:30.146Z,68.57
2023-04-08T17:42:02.993Z,68.59
2023-04-08T17:44:33.676Z,68.10
2023-04-08T17:47:05.002Z,68.89
2023-04-08T17:49:36.014Z,68.69
2023-04-08T17:52:07.689Z,69.22
2023-04-08T17:54:41.831Z,69.64
2023-04-08T17:57:13.041Z,69.69
2023-04-08T17:59:44.944Z,69.99
2023-04-08T18:02:15.805Z,69.86
2023-04-08T18:04:47.922Z,70.05
2023-04-08T18:07:23.528Z,70.16
2023-04-08T18:09:54.180Z,70.52
2023-04-08T18:12:26.229Z,70.19
2023-04-08T18:14:58.305Z,70.23
2023-04-08T18:17:29.190Z,69.99
2023-04-08T18:20:00.324Z,70.25
2023-04-08T18:22:32.263Z,70.02
2023-04-08T18:25:03.253Z,69.75
2023-04-08T18:27:34.853Z,70.18
2023-04-08T18:30:05.824Z,69.67
2023-04-08T18:32:39.617Z,69.62
2023-04-08T18:35:11.982Z,69.86
2023-04-08T18:37:43.630Z,69.66
2023-04-08T18:40:15.396Z,69.72
2023-04-08T18:42:46.048Z,69.37
2023-04-08T18:45:16.570Z,69.35
2023-04-08T18:47:47.107Z,69.45
2023-04-08T18:50:17.692Z,69.28
2023-04-08T18:52:48.299Z,69.38
2023-04-08T18:55:18.947Z,69.66
2023-04-08T18:57:49.661Z,69.13
2023-04-08T19:00:21.763Z,68.96
2023-04-08T19:02:53.141Z,68.90
2023-04-08T19:05:24.070Z,69.16
2023-04-08T19:07:55.668Z,68.76
2023-04-08T19:10:26.333Z,68.57
2023-04-08T19:12:59.165Z,68.58
2023-04-08T19:15:30.498Z,68.50
2023-04-08T19:18:04.343Z,68.07
2023-04-08T19:20:36.535Z,67.66
2023-04-08T19:23:09.651Z,67.59
2023-04-08T19:25:40.315Z,67.28
2023-04-08T19:28:14.815Z,67.21
2023-04-08T19:30:45.461Z,66.09
2023-04-08T19:33:15.948Z,66.43
2023-04-08T19:35:49.542Z,66.49
2023-04-08T19:38:21.384Z,66.71
2023-04-08T19:40:53.498Z,66.69
2023-04-08T19:43:23.952Z,66.31
2023-04-08T19:45:55.996Z,66.47
2023-04-08T19:48:27.646Z,66.29
2023-04-08T19:50:59.688Z,66.04
2023-04-08T19:53:30.620Z,66.25
2023-04-08T19:56:02.474Z,66.45
2023-04-08T19:58:33.122Z,66.10
2023-04-08T20:01:04.956Z,66.33
2023-04-08T20:03:36.005Z,66.05
2023-04-08T20:06:06.782Z,66.58
2023-04-08T20:08:39.732Z,66.84
2023-04-08T20:11:13.170Z,66.94
2023-04-08T20:13:43.722Z,66.82
2023-04-08T20:16:14.522Z,66.89
2023-04-08T20:18:45.077Z,67.11
2023-04-08T20:21:15.702Z,67.48
2023-04-08T20:23:46.377Z,67.44
2023-04-08T20:26:23.056Z,67.63
2023-04-08T20:28:59.195Z,67.40
2023-04-08T20:31:32.387Z,67.39
2023-04-08T20:34:04.131Z,67.38
2023-04-08T20:36:36.441Z,67.38
2023-04-08T20:39:08.552Z,67.47
2023-04-08T20:41:41.529Z,67.33
2023-04-08T20:44:12.979Z,67.15
2023-04-08T20:46:45.291Z,67.49
2023-04-08T20:49:17.932Z,67.70
2023-04-08T20:51:48.817Z,68.09
2023-04-08T20:54:23.183Z,68.05
2023-04-08T20:56:55.691Z,68.49
2023-04-08T20:59:26.390Z,68.58
2023-04-08T21:01:57.939Z,68.30
2023-04-08T21:04:29.885Z,68.44
2023-04-08T21:07:03.572Z,68.51
2023-04-08T21:09:36.721Z,68.44
2023-04-08T21:12:10.672Z,68.57
2023-04-08T21:14:43.101Z,68.90
2023-04-08T21:17:13.770Z,68.85
2023-04-08T21:19:44.918Z,68.59
2023-04-08T21:22:18.349Z,69.17
2023-04-08T21:24:49.547Z,69.21
2023-04-08T21:27:20.326Z,69.56
2023-04-08T21:29:53.946Z,69.69
2023-04-08T21:32:25.166Z,69.42
2023-04-08T21:34:57.109Z,69.40
2023-04-08T21:37:27.896Z,69.24
2023-04-08T21:39:58.379Z,69.03
2023-04-08T21:42:28.904Z,69.10
2023-04-08T21:45:00.797Z,69.23
2023-04-08T21:47:34.552Z,69.19
2023-04-08T21:50:07.273Z,69.50
2023-04-08T21:52:37.999Z,70.12
2023-04-08T21:55:09.939Z,70.89
2023-04-08T21:57:42.647Z,70.91
2023-04-08T22:00:14.393Z,71.18
2023-04-08T22:02:45.189Z,70.84
2023-04-08T22:05:17.143Z,71.09
2023-04-08T22:07:49.268Z,71.36
2023-04-08T22:10:21.123Z,71.54
2023-04-08T22:12:53.310Z,71.67
2023-04-08T22:15:23.933Z,72.11
2023-04-08T22:17:56.566Z,72.75
2023-04-08T22:20:27.665Z,72.94
2023-04-08T22:22:58.352Z,73.10
2023-04-08T22:25:28.866Z,72.36
2023-04-08T22:27:59.485Z,72.87
2023-04-08T22:30:31.187Z,72.00
2023-04-08T22:33:03.004Z,72.21
2023-04-08T22:35:33.539Z,71.99
2023-04-08T22:38:05.340Z,72.25
2023-04-08T22:40:38.828Z,72.46
2023-04-08T22:43:09.348Z,72.45
2023-04-08T22:45:39.993Z,72.13
2023-04-08T22:48:10.615Z,72.77
2023-04-08T22:50:41.443Z,72.69
2023-04-08T22:53:13.609Z,73.22
2023-04-08T22:55:44.103Z,73.18
2023-04-08T22:58:14.722Z,73.83
2023-04-08T23:00:45.387Z,73.62
2023-04-08T23:03:16.213Z,73.60
2023-04-08T23:05:47.648Z,73.89
2023-04-08T23:08:18.140Z,74.12
2023-04-08T23:10:48.929Z,74.53
2023-04-08T23:13:19.512Z,74.84
2023-04-08T23:15:50.078Z,75.12
2023-04-08T23:18:20.812Z,75.06
2023-04-08T23:20:56.746Z,75.10
2023-04-08T23:23:28.567Z,75.23
2023-04-08T23:25:59.309Z,74.65
2023-04-08T23:28:29.775Z,74.38
2023-04-08T23:31:00.423Z,74.39
2023-04-08T23:33:31.038Z,74.69
2023-04-08T23:36:01.569Z,74.79
2023-04-08T23:38:32.622Z,74.82
2023-04-08T23:41:08.734Z,75.40
2023-04-08T23:43:39.384Z,75.59
2023-04-08T23:46:09.968Z,75.75
2023-04-08T23:48:40.583Z,75.80
2023-04-08T23:51:11.762Z,76.13
2023-04-08T23:53:42.296Z,76.37
2023-04-08T23:56:12.884Z,76.36
2023-04-08T23:58:43.358Z,76.24
